This is the latest recevied weather packets stored in our database for station/object N5PRN. If no packets are shown the sender has not sent any weather packets the latest 10 day(s).
| Time | Temp. | Humidity | Pressure | Rain* | Wind** | Luminosity | Snow |
|---|---|---|---|---|---|---|---|
| 1778180440 | 20.56° C | 77% | 1015.9 hPa | 0 mm | - | 1008 W/m² | - |
| 1778180138 | 20.56° C | 78% | 1015.8 hPa | 0 mm | - | 834 W/m² | - |
| 1778179834 | 20.56° C | 79% | 1016.1 hPa | 0 mm | - | 947 W/m² | - |
| 1778179533 | 20° C | 82% | 1016.1 hPa | 0 mm | - | 668 W/m² | - |
| 1778179230 | 19.44° C | 81% | 1016.1 hPa | 0 mm | - | 982 W/m² | - |
| 1778178925 | 19.44° C | 80% | 1016.3 hPa | 0 mm | - | 845 W/m² | - |
| 1778178623 | 18.33° C | 86% | 1016.3 hPa | 0 mm | - | 524 W/m² | - |
| 1778178319 | 18.33° C | 84% | 1016.4 hPa | 0 mm | - | 297 W/m² | - |
| 1778178015 | 17.78° C | 85% | 1016.3 hPa | 0 mm | - | 625 W/m² | - |
| 1778177712 | 17.22° C | 88% | 1016.4 hPa | 0 mm | - | 503 W/m² | - |
| 1778177408 | 17.22° C | 88% | 1016.5 hPa | 0 mm | - | 306 W/m² | - |
| 1778177105 | 17.22° C | 88% | 1016.4 hPa | 0 mm | - | 292 W/m² | - |
| 1778176801 | 16.67° C | 88% | 1016.5 hPa | 0 mm | - | 252 W/m² | - |
| 1778176498 | 16.67° C | 90% | 1016.2 hPa | 0 mm | - | 354 W/m² | - |
| 1778176196 | 16.67° C | 90% | 1016.3 hPa | 0 mm | - | 363 W/m² | - |
| 1778175893 | 16.67° C | 90% | 1016.5 hPa | 0 mm | - | 262 W/m² | - |
| 1778175590 | 16.67° C | 89% | 1016.9 hPa | 0 mm | - | 305 W/m² | - |
| 1778175287 | 16.67° C | 89% | 1017.1 hPa | 0 mm | - | 382 W/m² | - |
| 1778174984 | 16.67° C | 90% | 1017 hPa | 0 mm | - | 235 W/m² | - |
| 1778174680 | 16.67° C | 90% | 1016.9 hPa | 0 mm | - | 390 W/m² | - |
| 1778174377 | 16.11° C | 91% | 1017.1 hPa | 0 mm | - | 313 W/m² | - |
| 1778174073 | 16.11° C | 90% | 1017.1 hPa | 0 mm | - | 320 W/m² | - |
| 1778173770 | 16.11° C | 93% | 1017.1 hPa | 0 mm | - | 359 W/m² | - |
| 1778173467 | 15.56° C | 93% | 1017.4 hPa | 0 mm | - | 154 W/m² | - |
| 1778173163 | 15.56° C | 92% | 1017.4 hPa | 0 mm | - | 209 W/m² | - |
* Rain latest hour (hover to see other rain measurements)
** Current wind speed in m/s (hover to see current wind gust speed)